HESN

Aswan International Airport

Aswan, Egypt
METAR HESN 211400Z 15008KT CAVOK 41/M01 Q1005 NOSIG
Observed Flight Rules
Apr-21 @ 14:00 UTC (2 hours ago) Visual Flight Rules
Wind Visibility Clouds
150° at 8 knots 10,000+ meters
  • Clear skies
Temperatures Readings
Current 41°C / 106°F
Dewpoint -1°C / 30°F
Humidity 7%
Altimeter 29.68" Hg
Pressure 1005 hPa
Elevation 194
METAR HESN 211400Z 15008KT CAVOK 41/M01 Q1005 NOSIG
Observed Flight Rules
Apr-21 @ 14:00 UTC
(2 hours ago)
VFR
Wind Visibility
150° at 8 knots 10,000+ meters
Clouds
  • Clear skies
Temperature Dewpoint
41°C / 106°F -1°C / 30°F
Humidity Altimeter Pressure
7% 29.68" Hg 1005 hPa